Time;durP1;ratioP1;P1;durP2;ratioP2;P2;SDS_P1;SDS_P2;PMS_P1;PMS_P2;Temp;Humidity;BMP_temperature;BMP_pressure;BME280_temperature;BME280_humidity;BME280_pressure;Samples;Min_cycle;Max_cycle;Signal;HPM_P1;HPM_P2
2022/10/06 00:00:01;;;;;;;4.53;2.20;;;;;;;14.01;100.00;101522.16;5043654;28;20061;-79
2022/10/06 00:02:34;;;;;;;6.47;2.55;;;;;;;14.05;100.00;101540.13;5043746;28;20049;-80
2022/10/06 00:05:04;;;;;;;7.15;2.08;;;;;;;13.98;100.00;101539.09;5043131;28;20420;-81
2022/10/06 00:07:31;;;;;;;5.97;2.70;;;;;;;13.95;100.00;101548.13;5042892;28;20072;-81
2022/10/06 00:10:01;;;;;;;5.88;2.50;;;;;;;14.01;100.00;101565.09;5041398;28;20109;-80
2022/10/06 00:12:28;;;;;;;5.32;2.50;;;;;;;14.03;100.00;101568.41;5041611;28;20057;-80
2022/10/06 00:14:55;;;;;;;5.05;2.47;;;;;;;13.97;100.00;101558.50;5040935;28;20148;-81
2022/10/06 00:17:22;;;;;;;5.57;2.33;;;;;;;14.01;100.00;101575.63;5035759;28;20045;-79
2022/10/06 00:19:49;;;;;;;7.90;2.10;;;;;;;14.03;100.00;101581.56;5034886;28;20057;-79
2022/10/06 00:22:16;;;;;;;4.28;1.98;;;;;;;14.01;100.00;101580.88;5037169;28;20049;-79
2022/10/06 00:24:42;;;;;;;7.53;3.40;;;;;;;13.98;100.00;101580.38;5086394;23;20136;-80
2022/10/06 00:27:10;;;;;;;4.18;2.20;;;;;;;13.95;100.00;101576.25;5059047;28;20049;-80
2022/10/06 00:29:41;;;;;;;8.07;2.78;;;;;;;13.95;100.00;101578.88;5059022;28;20132;-79
2022/10/06 00:32:09;;;;;;;7.30;2.67;;;;;;;14.04;100.00;101599.00;5059513;28;20132;-81
2022/10/06 00:34:36;;;;;;;7.05;2.42;;;;;;;14.07;100.00;101593.44;5059823;28;20052;-80
2022/10/06 00:37:03;;;;;;;4.72;2.30;;;;;;;14.02;100.00;101579.09;5059798;28;20051;-80
2022/10/06 00:39:29;;;;;;;6.20;2.42;;;;;;;14.08;100.00;101595.06;5059841;28;20044;-80
2022/10/06 00:41:56;;;;;;;5.78;2.30;;;;;;;14.03;100.00;101591.25;5068519;28;20045;-80
2022/10/06 00:44:24;;;;;;;4.80;2.30;;;;;;;13.99;100.00;101590.75;5068649;28;20083;-80
2022/10/06 00:46:53;;;;;;;8.93;2.80;;;;;;;13.97;100.00;101583.97;5065923;28;20076;-80
2022/10/06 00:49:23;;;;;;;3.78;2.15;;;;;;;13.96;100.00;101593.69;5067467;28;20060;-79
2022/10/06 00:51:54;;;;;;;3.60;2.30;;;;;;;13.89;100.00;101592.63;5067118;28;20603;-80
2022/10/06 00:54:21;;;;;;;8.82;2.70;;;;;;;13.86;100.00;101608.72;5066656;28;20150;-79
2022/10/06 00:56:48;;;;;;;8.88;2.88;;;;;;;13.80;100.00;101609.34;5064047;28;20104;-81
2022/10/06 00:59:16;;;;;;;7.10;3.35;;;;;;;13.72;100.00;101611.91;5060906;28;20044;-79
2022/10/06 01:01:53;;;;;;;7.70;3.42;;;;;;;13.65;100.00;101610.88;5059671;28;20127;-80
2022/10/06 01:04:21;;;;;;;8.40;4.65;;;;;;;13.58;100.00;101622.00;5061031;28;20132;-81
2022/10/06 01:06:51;;;;;;;12.75;4.72;;;;;;;13.58;100.00;101634.34;5059722;28;20124;-80
2022/10/06 01:09:19;;;;;;;10.20;4.80;;;;;;;13.55;100.00;101632.00;5060173;28;20121;-81
2022/10/06 01:11:49;;;;;;;8.68;4.43;;;;;;;13.45;100.00;101639.13;5059752;28;20105;-80
2022/10/06 01:14:20;;;;;;;9.60;5.10;;;;;;;13.43;100.00;101644.53;5060969;28;20176;-81
2022/10/06 01:16:53;;;;;;;13.20;5.35;;;;;;;13.41;100.00;101640.41;5062340;28;20049;-80
2022/10/06 01:19:39;;;;;;;11.30;4.70;;;;;;;13.35;100.00;101644.47;5062091;28;20127;-80
2022/10/06 01:22:12;;;;;;;13.68;4.78;;;;;;;13.23;100.00;101637.78;5063157;28;20049;-79
2022/10/06 01:24:41;;;;;;;9.70;4.60;;;;;;;13.13;100.00;101632.56;5062212;28;20049;-81
2022/10/06 01:27:14;;;;;;;10.32;4.18;;;;;;;13.17;100.00;101643.63;5062475;28;20077;-81
2022/10/06 01:29:40;;;;;;;;;;;;;;;13.23;100.00;101666.69;5061867;28;20049;-79
2022/10/06 01:32:13;;;;;;;7.97;3.97;;;;;;;13.20;100.00;101673.06;5061371;28;19920;-82
2022/10/06 01:34:47;;;;;;;10.20;3.97;;;;;;;13.23;100.00;101664.06;5061218;28;20140;-83
2022/10/06 01:37:14;;;;;;;10.82;4.30;;;;;;;13.17;100.00;101669.91;5060945;28;20073;-82
2022/10/06 01:39:43;;;;;;;6.65;4.20;;;;;;;13.11;100.00;101666.03;5062325;28;20076;-83
2022/10/06 01:42:10;;;;;;;10.13;5.45;;;;;;;13.14;100.00;101676.25;5066144;28;20076;-85
2022/10/06 01:44:48;;;;;;;7.75;4.15;;;;;;;13.05;100.00;101666.63;5062611;28;20365;-83
2022/10/06 01:47:15;;;;;;;11.23;4.10;;;;;;;13.05;100.00;101676.31;5061698;28;20109;-81
2022/10/06 01:49:42;;;;;;;10.48;4.40;;;;;;;13.13;100.00;101676.41;5061006;28;20128;-82
2022/10/06 01:52:13;;;;;;;10.98;4.40;;;;;;;12.99;100.00;101671.63;5061139;28;20049;-82
2022/10/06 01:54:43;;;;;;;8.52;4.25;;;;;;;12.97;100.00;101674.41;5062942;28;20057;-82
2022/10/06 01:57:10;;;;;;;9.63;4.63;;;;;;;12.98;100.00;101675.22;5064796;28;20041;-81
2022/10/06 01:59:44;;;;;;;14.45;4.35;;;;;;;12.96;100.00;101681.47;5064007;28;20139;-80
2022/10/06 02:02:19;;;;;;;12.13;4.03;;;;;;;13.09;100.00;101698.69;5062904;28;20056;-84
2022/10/06 02:04:49;;;;;;;8.80;4.40;;;;;;;12.92;100.00;101674.84;5065387;28;20573;-82
2022/10/06 02:07:18;;;;;;;10.13;3.97;;;;;;;13.02;99.67;101695.00;5064623;28;20049;-82
2022/10/06 02:09:46;;;;;;;12.80;4.35;;;;;;;12.85;99.17;101670.31;5062943;28;20061;-82
2022/10/06 02:12:21;;;;;;;12.00;3.63;;;;;;;13.06;98.98;101696.34;5062578;28;20542;-82
2022/10/06 02:14:51;;;;;;;10.40;4.15;;;;;;;12.93;99.04;101694.88;5061654;28;20084;-81
2022/10/06 02:17:17;;;;;;;7.82;3.63;;;;;;;12.91;99.41;101703.88;5061583;28;20045;-82
2022/10/06 02:19:51;;;;;;;9.18;3.95;;;;;;;12.92;99.47;101698.47;5061538;28;20080;-82
2022/10/06 02:22:18;;;;;;;15.80;4.10;;;;;;;12.92;99.96;101698.47;5060791;28;20049;-82
2022/10/06 02:24:51;;;;;;;16.83;4.65;;;;;;;12.90;100.00;101705.69;5063037;28;20069;-82
2022/10/06 02:27:18;;;;;;;16.17;4.60;;;;;;;12.93;100.00;101705.41;5064988;28;20119;-82
2022/10/06 02:29:52;;;;;;;9.20;4.00;;;;;;;12.88;100.00;101706.78;5065213;28;20147;-81
2022/10/06 02:32:19;;;;;;;9.88;3.90;;;;;;;12.86;100.00;101709.56;5065533;28;20048;-81
2022/10/06 02:34:45;;;;;;;8.75;3.40;;;;;;;12.95;100.00;101736.78;5064809;28;20057;-82
2022/10/06 02:37:14;;;;;;;10.27;3.75;;;;;;;12.85;100.00;101733.34;5066395;28;20075;-82
2022/10/06 02:39:43;;;;;;;12.82;3.60;;;;;;;12.78;100.00;101733.09;5066211;28;20059;-83
2022/10/06 02:42:16;;;;;;;9.48;3.70;;;;;;;12.69;100.00;101723.47;5068035;28;20072;-81
2022/10/06 02:44:45;;;;;;;12.35;3.90;;;;;;;12.69;100.00;101733.97;5067783;28;20072;-80
2022/10/06 02:47:13;;;;;;;13.85;4.05;;;;;;;12.63;100.00;101734.53;5069278;28;20110;-85
2022/10/06 02:49:42;;;;;;;13.68;3.70;;;;;;;12.77;100.00;101754.25;5067814;28;20045;-84
2022/10/06 02:52:09;;;;;;;7.22;3.78;;;;;;;12.70;100.00;101751.41;5071365;28;20083;-83
2022/10/06 02:54:36;;;;;;;14.40;3.78;;;;;;;12.71;100.00;101758.31;5069708;28;20083;-84
2022/10/06 02:57:05;;;;;;;10.40;3.83;;;;;;;12.63;100.00;101755.56;5069333;28;20053;-84
2022/10/06 02:59:34;;;;;;;11.02;3.53;;;;;;;12.54;99.53;101741.47;5068735;28;20045;-84
2022/10/06 03:02:02;;;;;;;16.13;3.72;;;;;;;12.51;99.57;101752.25;5068755;28;20063;-84
2022/10/06 03:04:29;;;;;;;11.45;3.60;;;;;;;12.45;99.67;101757.25;5069020;28;20055;-84
2022/10/06 03:06:58;;;;;;;15.05;3.67;;;;;;;12.38;99.67;101753.50;5069269;28;20052;-84
2022/10/06 03:09:25;;;;;;;14.98;4.22;;;;;;;12.45;99.44;101773.00;5068660;28;20048;-84
2022/10/06 03:11:54;;;;;;;10.75;3.25;;;;;;;12.29;98.48;101752.56;5068861;28;20125;-84
2022/10/06 03:14:21;;;;;;;17.45;3.20;;;;;;;12.24;98.73;101760.88;5069832;28;20063;-84
2022/10/06 03:16:50;;;;;;;10.73;3.45;;;;;;;12.25;98.66;101775.66;5069648;28;20124;-82
2022/10/06 03:19:21;;;;;;;10.50;3.75;;;;;;;12.19;98.68;101778.00;5068272;28;20044;-82
2022/10/06 03:21:49;;;;;;;11.02;3.45;;;;;;;12.12;98.93;101787.38;5044416;28;20049;-82
2022/10/06 03:24:16;;;;;;;13.30;2.97;;;;;;;12.15;98.94;101802.84;5046955;28;20053;-82
2022/10/06 03:26:47;;;;;;;9.68;3.60;;;;;;;11.98;99.44;101793.03;5065781;28;20052;-81
2022/10/06 03:29:19;;;;;;;10.70;3.58;;;;;;;11.90;98.92;101805.03;5065826;28;20055;-82
2022/10/06 03:31:45;;;;;;;14.40;3.58;;;;;;;11.93;98.68;101820.50;5074225;28;20053;-80
2022/10/06 03:34:16;;;;;;;11.77;3.00;;;;;;;11.76;98.74;101810.66;5073478;28;20106;-80
2022/10/06 03:36:45;;;;;;;10.45;2.97;;;;;;;11.69;98.82;101803.47;5070357;28;20045;-81
2022/10/06 03:39:15;;;;;;;11.15;3.10;;;;;;;11.83;98.22;101824.06;5072021;28;20069;-81
2022/10/06 03:41:42;;;;;;;9.63;2.88;;;;;;;11.92;97.25;101833.75;5069467;28;20063;-81
2022/10/06 03:44:09;;;;;;;13.23;3.35;;;;;;;11.89;97.13;101834.84;5068791;28;20083;-83
2022/10/06 03:46:36;;;;;;;12.77;2.97;;;;;;;11.92;96.60;101850.31;5069141;28;20109;-83
2022/10/06 03:49:03;;;;;;;15.38;3.28;;;;;;;11.88;96.30;101853.34;5068353;28;20045;-83
2022/10/06 03:51:33;;;;;;;11.52;3.40;;;;;;;11.85;96.54;101853.59;5067910;28;20052;-82
2022/10/06 03:54:00;;;;;;;8.20;2.63;;;;;;;11.80;96.38;101855.81;5066731;28;20088;-83
2022/10/06 03:56:29;;;;;;;5.82;2.60;;;;;;;11.77;96.27;101861.34;5066429;28;20087;-81
2022/10/06 03:58:58;;;;;;;15.80;3.67;;;;;;;11.73;96.53;101871.22;5066961;28;20072;-82
2022/10/06 04:01:27;;;;;;;12.32;3.30;;;;;;;11.61;96.79;101867.03;5065940;28;20106;-83
2022/10/06 04:03:55;;;;;;;15.77;3.58;;;;;;;11.59;97.03;101868.97;5066273;28;20135;-83
2022/10/06 04:06:22;;;;;;;13.82;3.53;;;;;;;11.59;96.79;101877.66;5066075;28;20559;-82
2022/10/06 04:08:52;;;;;;;10.98;3.38;;;;;;;11.53;96.70;101879.97;5065342;28;20117;-80
2022/10/06 04:11:21;;;;;;;9.10;3.20;;;;;;;11.55;96.78;101888.53;5065932;28;20132;-81
2022/10/06 04:13:51;;;;;;;15.93;4.07;;;;;;;11.48;97.39;101887.41;5066838;28;20156;-82
2022/10/06 04:16:19;;;;;;;10.18;3.70;;;;;;;11.47;96.70;101897.06;5066793;28;20040;-82
2022/10/06 04:18:49;;;;;;;16.60;3.72;;;;;;;11.44;96.67;101905.19;5066758;28;20095;-81
2022/10/06 04:21:16;;;;;;;12.70;3.70;;;;;;;11.48;96.47;101898.72;5065982;28;20095;-83
2022/10/06 04:23:43;;;;;;;9.45;3.15;;;;;;;11.42;96.51;101912.34;5067130;28;20087;-81
2022/10/06 04:26:13;;;;;;;16.40;5.05;;;;;;;11.40;96.73;101909.00;5066495;28;20091;-81
2022/10/06 04:28:42;;;;;;;18.58;4.35;;;;;;;11.37;96.55;101909.28;5066024;28;20129;-81
2022/10/06 04:31:14;;;;;;;13.68;3.65;;;;;;;11.37;96.31;101917.13;5065400;28;20052;-80
2022/10/06 04:33:41;;;;;;;12.07;3.22;;;;;;;11.40;96.07;101916.88;5065706;28;20049;-81
2022/10/06 04:36:10;;;;;;;13.88;3.70;;;;;;;11.33;95.79;101920.16;5065913;28;20052;-81
2022/10/06 04:38:37;;;;;;;16.15;3.45;;;;;;;11.23;96.43;101925.34;5065531;28;20364;-82
2022/10/06 04:41:05;;;;;;;13.50;3.50;;;;;;;11.25;96.31;101936.53;5065533;28;20060;-81
2022/10/06 04:43:34;;;;;;;16.38;3.30;;;;;;;11.17;96.21;101944.19;5065507;28;20060;-83
2022/10/06 04:46:02;;;;;;;11.80;3.97;;;;;;;11.20;96.47;101946.56;5064749;28;20048;-82
2022/10/06 04:48:30;;;;;;;19.23;3.72;;;;;;;11.10;96.22;101937.81;5064470;28;20044;-82
2022/10/06 04:51:03;;;;;;;10.18;3.55;;;;;;;11.15;95.44;101946.13;5066395;28;20055;-82
2022/10/06 04:53:39;;;;;;;10.20;3.47;;;;;;;11.11;95.90;101963.03;5065577;28;20430;-81
2022/10/06 04:56:45;;;;;;;14.50;3.28;;;;;;;10.88;96.33;101936.94;5065654;28;20055;-81
2022/10/06 04:59:19;;;;;;;15.98;4.10;;;;;;;10.97;96.75;101951.06;5065903;28;20159;-81
2022/10/06 05:04:47;;;;;;;12.63;3.28;;;;;;;10.78;96.80;101958.81;5064494;28;20059;-84
2022/10/06 05:07:15;;;;;;;14.82;4.47;;;;;;;10.83;96.95;101974.97;5063037;28;20071;-83
2022/10/06 05:09:42;;;;;;;17.50;3.17;;;;;;;10.78;97.35;101977.97;5064363;28;20049;-83
2022/10/06 05:12:09;;;;;;;13.38;4.70;;;;;;;10.73;97.71;101985.34;5062758;28;20044;-83
2022/10/06 05:14:37;;;;;;;15.65;4.20;;;;;;;10.67;97.90;101977.16;5064974;28;20160;-83
2022/10/06 05:17:04;;;;;;;12.57;3.53;;;;;;;10.57;97.98;101984.91;5065333;28;20056;-82
2022/10/06 05:19:30;;;;;;;26.02;4.25;;;;;;;10.62;97.90;101988.00;5066085;28;20080;-81
2022/10/06 05:21:57;;;;;;;16.77;4.50;;;;;;;10.54;98.54;101985.16;5063186;28;20155;-81
2022/10/06 05:24:23;;;;;;;17.25;4.35;;;;;;;10.44;99.29;101984.22;5060371;28;20079;-82
2022/10/06 05:26:50;;;;;;;13.10;3.53;;;;;;;10.43;99.40;101987.78;5066509;28;20109;-83
2022/10/06 05:29:17;;;;;;;13.93;3.50;;;;;;;10.37;99.89;101999.59;5064126;28;20095;-82
2022/10/06 05:31:48;;;;;;;13.50;3.60;;;;;;;10.34;99.74;102004.25;5064721;28;20080;-80
2022/10/06 05:34:14;;;;;;;15.70;4.28;;;;;;;10.37;99.71;102019.72;5065347;28;20148;-81
2022/10/06 05:36:41;;;;;;;14.13;3.80;;;;;;;10.28;99.85;102016.03;5063102;28;20124;-82
2022/10/06 05:39:07;;;;;;;16.38;3.90;;;;;;;10.26;100.00;102020.53;5062791;28;20073;-82
2022/10/06 05:41:36;;;;;;;17.17;3.92;;;;;;;10.28;100.00;102027.31;5061281;28;20131;-82
2022/10/06 05:44:03;;;;;;;23.85;7.00;;;;;;;10.27;99.74;102024.81;5060301;28;20565;-82
2022/10/06 05:46:31;;;;;;;15.82;4.05;;;;;;;10.31;99.71;102031.47;5059310;28;20488;-82
2022/10/06 05:49:02;;;;;;;15.35;4.80;;;;;;;10.44;98.91;102044.41;5059098;28;20108;-82
2022/10/06 05:51:30;;;;;;;15.65;4.28;;;;;;;10.42;98.56;102052.38;5061311;28;20518;-83
2022/10/06 05:53:57;;;;;;;18.30;4.80;;;;;;;10.45;98.61;102051.31;5060887;28;20044;-82
2022/10/06 05:56:25;;;;;;;19.88;6.03;;;;;;;10.43;98.72;102058.44;5059688;28;20109;-81
2022/10/06 05:58:53;;;;;;;22.38;5.35;;;;;;;10.37;98.92;102062.41;5063184;28;20080;-83
2022/10/06 06:01:22;;;;;;;19.88;5.53;;;;;;;10.36;98.98;102068.59;5064540;28;20152;-82
2022/10/06 06:03:50;;;;;;;14.27;4.90;;;;;;;10.42;98.15;102069.88;5064345;28;20131;-83
2022/10/06 06:06:20;;;;;;;17.40;5.78;;;;;;;10.45;97.86;102073.06;5065623;28;20133;-83
2022/10/06 06:08:48;;;;;;;19.27;5.53;;;;;;;10.48;97.95;102075.44;5066329;28;20511;-82
2022/10/06 06:11:17;;;;;;;16.98;5.65;;;;;;;10.51;97.69;102082.22;5067180;28;20478;-85
2022/10/06 06:13:44;;;;;;;15.18;5.18;;;;;;;10.56;97.77;102088.78;5068193;28;20060;-82
2022/10/06 06:16:13;;;;;;;20.92;5.15;;;;;;;10.57;97.39;102089.59;5067748;28;20049;-82
2022/10/06 06:18:40;;;;;;;25.75;5.32;;;;;;;10.60;97.35;102090.22;5068058;28;20045;-83
2022/10/06 06:21:08;;;;;;;22.67;5.85;;;;;;;10.69;96.91;102087.81;5066919;28;20079;-82
2022/10/06 06:23:39;;;;;;;23.83;5.82;;;;;;;10.91;97.13;102093.00;5084024;22;20061;-79
2022/10/06 06:26:07;;;;;;;15.15;4.47;;;;;;;11.46;94.88;102093.75;5025883;28;20045;-79
2022/10/06 06:28:35;;;;;;;22.73;5.10;;;;;;;12.03;91.89;102097.78;5057387;28;20049;-78
2022/10/06 06:31:05;;;;;;;18.48;4.72;;;;;;;12.42;88.78;102104.03;5049218;28;20060;-79
2022/10/06 06:33:32;;;;;;;13.00;5.00;;;;;;;12.81;86.00;102111.06;5040327;28;20041;-80
2022/10/06 06:36:01;;;;;;;16.35;4.80;;;;;;;13.02;84.49;102113.59;5040584;28;20076;-79
2022/10/06 06:38:28;;;;;;;14.40;4.20;;;;;;;13.03;83.88;102115.25;5039055;28;20408;-80
2022/10/06 06:40:56;;;;;;;13.23;4.60;;;;;;;12.87;83.76;102107.06;5039684;28;20112;-78
2022/10/06 06:43:22;;;;;;;14.32;3.97;;;;;;;13.06;83.65;102122.03;5039615;28;20049;-79
2022/10/06 06:45:49;;;;;;;19.80;4.70;;;;;;;12.97;82.80;102110.53;5039589;28;20077;-80
2022/10/06 06:48:16;;;;;;;17.80;4.00;;;;;;;13.47;82.11;102131.50;5040352;28;20076;-79
2022/10/06 06:50:44;;;;;;;21.42;4.40;;;;;;;13.69;80.15;102127.78;5042095;28;20076;-80
2022/10/06 06:53:12;;;;;;;16.48;4.25;;;;;;;14.08;79.30;102134.63;5041282;28;20451;-79
2022/10/06 06:55:48;;;;;;;20.60;4.00;;;;;;;14.40;77.33;102126.34;5041694;28;20064;-81
2022/10/06 06:58:17;;;;;;;23.00;4.05;;;;;;;14.41;77.38;102137.72;5040370;28;20151;-78
2022/10/06 07:00:43;;;;;;;17.50;3.78;;;;;;;14.73;76.19;102139.94;5040260;28;20111;-80
2022/10/06 07:03:13;;;;;;;13.45;4.03;;;;;;;15.08;75.37;102149.75;5041024;28;20088;-80
2022/10/06 07:05:39;;;;;;;21.38;6.13;;;;;;;15.16;74.43;102149.81;5040546;28;20137;-80
2022/10/06 07:08:07;;;;;;;13.05;3.50;;;;;;;15.54;73.59;102151.38;5041310;28;20053;-80
2022/10/06 07:10:35;;;;;;;14.90;4.53;;;;;;;15.22;74.36;102157.13;5038750;28;20103;-79
2022/10/06 07:13:01;;;;;;;15.27;3.80;;;;;;;15.42;73.57;102157.84;5040333;28;20111;-79
2022/10/06 07:26:31;;;;;;;14.80;4.43;;;;;;;15.97;72.33;102184.91;5019305;28;20054;-79
2022/10/06 07:28:58;;;;;;;18.98;4.00;;;;;;;15.93;71.23;102178.25;5039522;28;20132;-80
2022/10/06 07:31:32;;;;;;;9.60;4.00;;;;;;;16.20;71.40;102193.13;5039375;28;20500;-80
2022/10/06 07:33:59;;;;;;;15.38;3.92;;;;;;;15.87;72.17;102202.63;5039032;28;20049;-80
2022/10/06 07:36:26;;;;;;;12.45;4.43;;;;;;;15.84;72.65;102205.56;5039524;28;20085;-79
2022/10/06 07:38:52;;;;;;;16.05;4.40;;;;;;;15.89;72.21;102205.94;5038971;28;20133;-79
2022/10/06 07:41:19;;;;;;;14.77;4.40;;;;;;;16.37;71.55;102216.03;5040022;28;20053;-79
2022/10/06 07:43:46;;;;;;;14.00;4.90;;;;;;;16.49;70.88;102221.91;5039760;28;20094;-79
2022/10/06 07:46:13;;;;;;;14.52;4.40;;;;;;;16.94;69.87;102226.13;5039108;28;20049;-80
2022/10/06 07:48:42;;;;;;;21.10;4.85;;;;;;;16.88;69.18;102225.75;5038743;28;20140;-79
2022/10/06 07:51:14;;;;;;;15.98;4.35;;;;;;;16.80;69.60;102230.19;5039814;28;20053;-77
2022/10/06 07:53:41;;;;;;;15.13;4.80;;;;;;;16.57;70.11;102230.69;5039840;28;20152;-79
2022/10/06 07:56:09;;;;;;;18.45;4.22;;;;;;;16.84;69.58;102227.06;5039774;28;20049;-80
2022/10/06 07:58:37;;;;;;;18.60;4.25;;;;;;;16.53;70.44;102234.66;5039005;28;20045;-80
2022/10/06 08:01:05;;;;;;;18.70;4.55;;;;;;;16.07;71.61;102235.78;5039506;28;20053;-79
2022/10/06 08:03:32;;;;;;;17.48;4.47;;;;;;;16.62;70.92;102239.94;5040931;28;20073;-80
2022/10/06 08:06:01;;;;;;;16.15;4.55;;;;;;;16.62;70.83;102232.84;5040319;28;20053;-80
2022/10/06 08:08:31;;;;;;;19.17;5.00;;;;;;;17.13;69.26;102244.34;5039983;28;20477;-80
2022/10/06 08:10:59;;;;;;;15.00;4.28;;;;;;;16.86;69.71;102250.69;5040704;28;20050;-80
2022/10/06 08:13:27;;;;;;;17.73;4.85;;;;;;;16.91;70.20;102248.41;5039645;28;20096;-80
2022/10/06 08:15:55;;;;;;;17.73;4.72;;;;;;;17.06;69.66;102261.84;5039805;28;20054;-79
2022/10/06 08:18:23;;;;;;;14.32;5.15;;;;;;;16.98;69.47;102257.38;5039803;28;20042;-79
2022/10/06 08:20:50;;;;;;;13.93;4.65;;;;;;;16.80;69.73;102259.25;5042294;28;20352;-80
2022/10/06 08:23:18;;;;;;;15.25;4.00;;;;;;;16.76;69.80;102261.38;5042473;28;20064;-79
2022/10/06 08:25:50;;;;;;;14.05;4.43;;;;;;;17.31;69.29;102257.50;5046282;28;20164;-80
2022/10/06 08:28:17;;;;;;;18.95;4.43;;;;;;;17.31;69.11;102260.97;5046450;28;20109;-79
2022/10/06 08:30:43;;;;;;;17.05;4.40;;;;;;;16.79;70.24;102254.97;5045497;28;20073;-79
2022/10/06 08:33:10;;;;;;;16.55;5.65;;;;;;;16.65;70.76;102259.00;5044846;28;20076;-80
2022/10/06 08:35:38;;;;;;;19.15;6.72;;;;;;;16.72;70.30;102257.41;5045929;28;20081;-79
2022/10/06 08:38:05;;;;;;;16.98;4.47;;;;;;;16.37;70.90;102254.84;5045298;28;20099;-80
2022/10/06 08:40:34;;;;;;;15.52;4.25;;;;;;;16.98;71.08;102253.91;5046563;28;20068;-80
2022/10/06 08:43:02;;;;;;;12.45;4.28;;;;;;;17.39;68.96;102270.75;5047305;28;20059;-78
2022/10/06 08:45:34;;;;;;;12.80;4.28;;;;;;;17.14;69.34;102259.25;5039235;28;20124;-79
2022/10/06 08:48:04;;;;;;;15.35;4.45;;;;;;;17.34;69.46;102267.75;5038771;28;20050;-80
2022/10/06 08:50:37;;;;;;;19.92;5.10;;;;;;;17.35;68.65;102269.41;5039532;28;20132;-79
2022/10/06 08:53:13;;;;;;;14.52;4.55;;;;;;;17.18;69.15;102276.44;5038658;28;20060;-79
2022/10/06 08:55:47;;;;;;;16.50;5.45;;;;;;;16.89;70.00;102266.25;5037762;28;20064;-79
2022/10/06 08:58:35;;;;;;;18.48;4.80;;;;;;;16.09;70.95;102284.00;5038185;28;20128;-80
2022/10/06 09:01:14;;;;;;;15.27;4.30;;;;;;;16.08;71.89;102282.31;5038685;28;20480;-80
2022/10/06 09:03:44;;;;;;;16.77;4.28;;;;;;;16.00;72.53;102284.09;5038723;28;20077;-79
2022/10/06 09:06:22;;;;;;;15.02;3.85;;;;;;;15.91;73.00;102296.38;5038744;28;20144;-80
2022/10/06 09:08:53;;;;;;;14.95;4.05;;;;;;;15.59;73.23;102288.97;5038168;28;20085;-79
2022/10/06 09:11:38;;;;;;;16.00;3.88;;;;;;;15.81;73.30;102295.63;5039193;28;20125;-79
2022/10/06 09:14:16;;;;;;;16.70;4.30;;;;;;;15.75;72.59;102291.75;5038463;28;20248;-80
2022/10/06 09:16:47;;;;;;;12.95;4.50;;;;;;;15.81;73.03;102300.91;5038488;28;20054;-79
2022/10/06 09:19:18;;;;;;;12.07;3.67;;;;;;;15.77;72.86;102304.81;5037802;28;20136;-79
2022/10/06 09:21:49;;;;;;;14.52;3.78;;;;;;;15.98;72.55;102305.38;5038754;28;20080;-80
2022/10/06 09:24:18;;;;;;;14.60;4.45;;;;;;;15.72;71.98;102305.25;5038023;28;20156;-80
2022/10/06 09:26:50;;;;;;;15.63;4.10;;;;;;;15.57;71.81;102315.50;5038210;28;20109;-80
2022/10/06 09:29:17;;;;;;;13.00;3.47;;;;;;;15.55;71.29;102306.88;5037871;28;20136;-79
2022/10/06 09:31:49;;;;;;;10.48;3.40;;;;;;;15.65;70.99;102312.09;5039024;28;20141;-80
2022/10/06 09:34:24;;;;;;;18.45;4.97;;;;;;;15.54;72.37;102309.66;5041149;28;20107;-79
2022/10/06 09:37:02;;;;;;;15.68;3.90;;;;;;;15.85;70.42;102320.75;5042434;28;20104;-80
2022/10/06 09:39:35;;;;;;;12.10;3.35;;;;;;;15.64;69.95;102314.88;5042138;28;20041;-78
2022/10/06 09:42:05;;;;;;;;;;;;;;;15.54;69.40;102320.22;5042850;28;20048;-78
2022/10/06 09:44:43;;;;;;;10.40;3.50;;;;;;;15.36;69.71;102328.06;5042663;28;19920;-79
2022/10/06 09:47:43;;;;;;;13.02;3.95;;;;;;;15.66;70.18;102320.84;5042332;28;20077;-78
2022/10/06 09:50:22;;;;;;;12.98;3.63;;;;;;;15.79;69.07;102316.06;5008343;28;20053;-80
2022/10/06 09:53:10;;;;;;;17.17;3.85;;;;;;;15.63;68.99;102323.78;5043232;28;20132;-80
2022/10/06 09:55:44;;;;;;;20.05;3.88;;;;;;;15.55;70.27;102327.16;5043460;28;20105;-79
2022/10/06 09:58:23;;;;;;;12.73;3.72;;;;;;;15.62;69.69;102322.94;5043068;28;20534;-79
2022/10/06 10:00:54;;;;;;;15.75;4.43;;;;;;;15.52;68.73;102323.00;5043965;28;20092;-79
2022/10/06 10:03:21;;;;;;;10.38;3.88;;;;;;;15.83;68.58;102320.88;5041822;28;20061;-79
2022/10/06 10:05:50;;;;;;;8.57;3.85;;;;;;;16.11;68.21;102326.09;5041498;28;20510;-79
2022/10/06 10:08:21;;;;;;;14.07;3.85;;;;;;;16.07;67.44;102317.63;5038663;28;20056;-79
2022/10/06 10:10:48;;;;;;;10.77;3.55;;;;;;;16.19;67.42;102326.16;5039569;28;20423;-79
2022/10/06 10:13:22;;;;;;;12.57;4.30;;;;;;;16.33;66.23;102332.72;5039675;28;20056;-79
2022/10/06 10:15:53;;;;;;;12.90;4.28;;;;;;;16.44;65.96;102321.94;5040733;28;20091;-79
2022/10/06 10:18:25;;;;;;;20.05;4.05;;;;;;;16.51;66.07;102323.81;5042156;28;20123;-79
2022/10/06 10:20:56;;;;;;;8.18;3.17;;;;;;;16.81;65.56;102319.91;5042310;28;20061;-79
2022/10/06 10:23:25;;;;;;;10.68;3.70;;;;;;;16.88;64.65;102328.88;5042859;28;20471;-79
2022/10/06 10:26:12;;;;;;;8.68;3.15;;;;;;;16.27;62.04;102327.06;5042856;28;20063;-79
2022/10/06 10:29:10;;;;;;;7.68;2.90;;;;;;;16.36;62.04;102330.63;5042442;28;20077;-79
2022/10/06 10:31:46;;;;;;;10.95;3.15;;;;;;;16.41;61.37;102316.97;5042845;28;20133;-79
2022/10/06 10:34:37;;;;;;;12.65;3.60;;;;;;;16.51;62.24;102320.34;5041343;28;20053;-78
2022/10/06 10:37:09;;;;;;;11.65;3.70;;;;;;;16.77;64.07;102325.66;5041369;28;20046;-79
2022/10/06 10:39:40;;;;;;;10.68;3.13;;;;;;;16.76;63.67;102330.13;5042698;28;20045;-78
2022/10/06 10:42:14;;;;;;;13.75;3.92;;;;;;;16.86;63.26;102322.91;5050003;28;20077;-79
2022/10/06 10:44:52;;;;;;;9.70;2.95;;;;;;;17.01;63.00;102333.75;5041332;28;20129;-80
2022/10/06 10:47:26;;;;;;;13.05;3.58;;;;;;;17.10;63.78;102329.31;5041399;28;20085;-80
2022/10/06 10:50:00;;;;;;;11.73;3.58;;;;;;;17.05;61.88;102327.13;5041086;28;20462;-80
2022/10/06 10:52:31;;;;;;;8.93;3.67;;;;;;;17.02;62.66;102332.72;5040623;28;20115;-79
2022/10/06 10:55:13;;;;;;;12.18;3.35;;;;;;;17.00;61.47;102336.56;5041727;28;20045;-80
2022/10/06 10:57:42;;;;;;;8.20;2.97;;;;;;;16.73;61.21;102340.16;5041810;28;20067;-79
2022/10/06 11:00:19;;;;;;;9.70;3.15;;;;;;;16.98;61.67;102328.78;5040574;28;20100;-80
2022/10/06 11:02:46;;;;;;;9.75;3.40;;;;;;;16.66;60.04;102326.75;5039130;28;20480;-79
2022/10/06 11:05:29;;;;;;;9.95;2.95;;;;;;;16.92;60.22;102334.69;5038639;28;20105;-79
2022/10/06 11:08:00;;;;;;;;;;;;;;;17.03;60.42;102338.84;5039235;28;20523;-79
2022/10/06 11:10:33;;;;;;;9.80;2.58;;;;;;;16.91;58.57;102331.22;5040212;28;19984;-80
2022/10/06 11:13:10;;;;;;;13.10;3.28;;;;;;;16.94;60.23;102331.88;5039388;28;20136;-79
2022/10/06 11:16:10;;;;;;;10.13;3.08;;;;;;;17.01;59.38;102333.75;5039190;28;20137;-79
2022/10/06 11:18:51;;;;;;;11.25;3.20;;;;;;;17.21;59.36;102339.63;5037495;28;20053;-79
2022/10/06 11:21:27;;;;;;;10.32;3.03;;;;;;;17.15;61.04;102334.97;5038979;28;20056;-79
2022/10/06 11:23:58;;;;;;;10.68;3.30;;;;;;;17.05;61.45;102332.44;5038801;28;20136;-79
2022/10/06 11:26:44;;;;;;;12.52;3.53;;;;;;;16.79;62.25;102332.44;5038572;28;20077;-78
2022/10/06 11:29:25;;;;;;;11.65;3.45;;;;;;;16.75;61.79;102331.09;5038857;28;20060;-79
2022/10/06 11:32:03;;;;;;;13.95;3.45;;;;;;;17.06;61.67;102325.31;5038775;28;20073;-79
2022/10/06 11:34:31;;;;;;;9.88;3.60;;;;;;;17.18;60.63;102332.00;5038067;28;20469;-80
2022/10/06 11:37:08;;;;;;;11.80;4.05;;;;;;;17.18;57.98;102330.19;5037236;28;20053;-79
2022/10/06 11:39:45;;;;;;;8.32;3.10;;;;;;;17.41;58.57;102325.16;5036297;28;20483;-79
2022/10/06 11:42:20;;;;;;;9.95;2.95;;;;;;;17.63;58.99;102325.56;5037948;28;20055;-79
2022/10/06 11:44:51;;;;;;;12.77;3.30;;;;;;;17.62;57.87;102324.72;5037750;28;20056;-79